createdAt,value
2022-10-24T00:00:16.601Z,30.338
2022-10-24T00:05:16.683Z,30.343
2022-10-24T00:10:16.604Z,30.340
2022-10-24T00:15:16.599Z,30.338
2022-10-24T00:20:16.495Z,30.334
2022-10-24T00:25:16.530Z,30.333
2022-10-24T00:30:16.541Z,30.333
2022-10-24T00:35:16.692Z,30.334
2022-10-24T00:40:16.540Z,30.335
2022-10-24T00:45:16.615Z,30.332
2022-10-24T00:50:16.553Z,30.328
2022-10-24T00:55:16.697Z,30.332
2022-10-24T01:00:16.894Z,30.333
2022-10-24T01:05:16.561Z,30.334
2022-10-24T01:10:16.580Z,30.330
2022-10-24T01:15:16.698Z,30.323
2022-10-24T01:20:16.772Z,30.318
2022-10-24T01:25:16.638Z,30.315
2022-10-24T01:30:16.726Z,30.310
2022-10-24T01:35:16.770Z,30.306
2022-10-24T01:40:16.847Z,30.303
2022-10-24T01:45:16.729Z,30.302
2022-10-24T01:50:16.725Z,30.300
2022-10-24T01:55:16.709Z,30.298
2022-10-24T02:00:16.673Z,30.300
2022-10-24T02:05:16.954Z,30.299
2022-10-24T02:10:16.773Z,30.303
2022-10-24T02:15:16.871Z,30.305
2022-10-24T02:20:16.830Z,30.305
2022-10-24T02:25:16.901Z,30.304
2022-10-24T02:30:16.904Z,30.307
2022-10-24T02:35:16.772Z,30.308
2022-10-24T02:40:16.785Z,30.307
2022-10-24T02:45:17.032Z,30.304
2022-10-24T02:50:16.980Z,30.305
2022-10-24T02:55:16.846Z,30.304
2022-10-24T03:00:16.897Z,30.299
2022-10-24T03:05:16.907Z,30.301
2022-10-24T03:10:16.916Z,30.293
2022-10-24T03:15:16.870Z,30.294
2022-10-24T03:20:17.124Z,30.294
2022-10-24T03:25:16.930Z,30.291
2022-10-24T03:30:16.865Z,30.288
2022-10-24T03:35:16.987Z,30.291
2022-10-24T03:40:17.105Z,30.290
2022-10-24T03:45:17.022Z,30.291
2022-10-24T03:50:17.066Z,30.291
2022-10-24T03:55:16.878Z,30.288
2022-10-24T04:00:16.090Z,30.286
2022-10-24T04:05:15.985Z,30.282
2022-10-24T04:10:16.044Z,30.285
2022-10-24T04:15:15.948Z,30.291
2022-10-24T04:20:15.986Z,30.289
2022-10-24T04:25:15.989Z,30.290
2022-10-24T04:30:16.881Z,30.290
2022-10-24T04:35:16.128Z,30.289
2022-10-24T04:40:16.055Z,30.284
2022-10-24T04:45:16.251Z,30.281
2022-10-24T04:50:16.019Z,30.283
2022-10-24T04:55:16.110Z,30.286
2022-10-24T05:00:16.098Z,30.279
2022-10-24T05:05:16.130Z,30.277
2022-10-24T05:10:16.120Z,30.277
2022-10-24T05:15:16.081Z,30.278
2022-10-24T05:20:16.096Z,30.278
2022-10-24T05:25:16.240Z,30.279
2022-10-24T05:30:16.175Z,30.268
2022-10-24T05:35:16.192Z,30.266
2022-10-24T05:40:16.179Z,30.269
2022-10-24T05:45:16.251Z,30.268
2022-10-24T05:50:16.228Z,30.271
2022-10-24T05:55:18.080Z,30.267
2022-10-24T06:00:16.372Z,30.267
2022-10-24T06:05:16.293Z,30.269
2022-10-24T06:10:16.263Z,30.267
2022-10-24T06:15:16.339Z,30.263
2022-10-24T06:20:16.305Z,30.266
2022-10-24T06:25:16.343Z,30.270
2022-10-24T06:30:16.194Z,30.273
2022-10-24T06:35:16.567Z,30.271
2022-10-24T06:40:16.517Z,30.262
2022-10-24T06:45:16.270Z,30.262
2022-10-24T06:50:16.450Z,30.256
2022-10-24T06:55:16.359Z,30.256
2022-10-24T07:00:16.473Z,30.255
2022-10-24T07:05:16.509Z,30.250
2022-10-24T07:10:16.307Z,30.250
2022-10-24T07:15:16.312Z,30.250
2022-10-24T07:20:16.347Z,30.251
2022-10-24T07:25:16.592Z,30.258
2022-10-24T07:30:16.448Z,30.250
2022-10-24T07:35:16.467Z,30.256
2022-10-24T07:40:16.488Z,30.253
2022-10-24T07:45:16.464Z,30.260
2022-10-24T07:50:16.391Z,30.250
2022-10-24T07:55:16.541Z,30.255
2022-10-24T08:00:16.479Z,30.249
2022-10-24T08:05:18.232Z,30.251
2022-10-24T08:10:16.414Z,30.253
2022-10-24T08:15:16.462Z,30.258
2022-10-24T08:20:16.624Z,30.256
2022-10-24T08:25:16.511Z,30.263
2022-10-24T08:30:16.492Z,30.266
2022-10-24T08:35:16.636Z,30.267
2022-10-24T08:40:16.560Z,30.278
2022-10-24T08:45:16.549Z,30.279
2022-10-24T08:50:16.679Z,30.279
2022-10-24T08:55:48.155Z,30.283
2022-10-24T09:00:16.545Z,30.279
2022-10-24T09:05:16.613Z,30.274
2022-10-24T09:10:16.604Z,30.271
2022-10-24T09:15:16.620Z,30.267
2022-10-24T09:20:16.668Z,30.271
2022-10-24T09:25:16.608Z,30.286
2022-10-24T09:30:16.651Z,30.284
2022-10-24T09:35:16.622Z,30.275
2022-10-24T09:40:16.670Z,30.271
2022-10-24T09:45:16.797Z,30.261
2022-10-24T09:50:16.666Z,30.252
2022-10-24T09:55:16.686Z,30.247
2022-10-24T10:00:16.777Z,30.235
2022-10-24T10:05:16.710Z,30.238
2022-10-24T10:10:16.869Z,30.245
2022-10-24T10:15:17.121Z,30.248
2022-10-24T10:20:18.917Z,30.254
2022-10-24T10:25:16.814Z,30.249
2022-10-24T10:30:16.876Z,30.254
2022-10-24T10:35:16.780Z,30.253
2022-10-24T10:40:16.757Z,30.260
2022-10-24T10:45:16.796Z,30.257
2022-10-24T10:50:19.923Z,30.258
2022-10-24T10:55:16.820Z,30.260
2022-10-24T11:00:17.001Z,30.260
2022-10-24T11:05:16.812Z,30.263
2022-10-24T11:10:16.863Z,30.259
2022-10-24T11:15:16.966Z,30.257
2022-10-24T11:20:16.825Z,30.261
2022-10-24T11:25:16.897Z,30.261
2022-10-24T11:30:16.930Z,30.260
2022-10-24T11:35:16.831Z,30.262
2022-10-24T11:40:17.067Z,30.264
2022-10-24T11:45:16.885Z,30.264
2022-10-24T11:50:19.500Z,30.266
2022-10-24T11:55:17.018Z,30.266
2022-10-24T12:00:17.040Z,30.268
2022-10-24T12:05:20.176Z,30.268
2022-10-24T12:10:16.944Z,30.263
2022-10-24T12:15:16.943Z,30.259
2022-10-24T12:20:17.114Z,30.266
2022-10-24T12:25:17.044Z,30.265
2022-10-24T12:30:17.027Z,30.269
2022-10-24T12:35:32.242Z,30.266
2022-10-24T12:40:17.026Z,30.264
2022-10-24T12:45:17.144Z,30.265
2022-10-24T12:50:17.060Z,30.259
2022-10-24T12:55:17.333Z,30.262
2022-10-24T13:00:17.048Z,30.261
2022-10-24T13:05:17.087Z,30.262
2022-10-24T13:10:17.306Z,30.258
2022-10-24T13:15:17.137Z,30.262
2022-10-24T13:20:17.114Z,30.263
2022-10-24T13:25:17.065Z,30.266
2022-10-24T13:30:17.136Z,30.265
2022-10-24T13:35:17.192Z,30.265
2022-10-24T13:40:17.205Z,30.262
2022-10-24T13:45:17.127Z,30.266
2022-10-24T13:50:17.153Z,30.272
2022-10-24T13:55:17.149Z,30.268
2022-10-24T14:00:17.142Z,30.268
2022-10-24T14:05:17.334Z,30.266
2022-10-24T14:10:17.203Z,30.266
2022-10-24T14:15:17.276Z,30.263
2022-10-24T14:20:17.166Z,30.263
2022-10-24T14:25:20.667Z,30.265
2022-10-24T14:30:18.193Z,30.267
2022-10-24T14:35:17.271Z,30.266
2022-10-24T14:40:17.265Z,30.263
2022-10-24T14:45:17.195Z,30.264
2022-10-24T14:50:17.517Z,30.268
2022-10-24T14:55:17.248Z,30.268
2022-10-24T15:00:17.259Z,30.263
2022-10-24T15:05:17.266Z,30.266
2022-10-24T15:10:17.263Z,30.266
2022-10-24T15:15:22.306Z,30.264
2022-10-24T15:20:17.279Z,30.268
2022-10-24T15:25:17.438Z,30.266
2022-10-24T15:30:17.343Z,30.268
2022-10-24T15:35:17.559Z,30.271
2022-10-24T15:40:17.338Z,30.270
2022-10-24T15:45:17.377Z,30.271
2022-10-24T15:50:15.445Z,30.269
2022-10-24T15:55:15.292Z,30.270
2022-10-24T16:00:15.445Z,30.271
2022-10-24T16:05:15.700Z,30.268
2022-10-24T16:10:15.380Z,30.272
2022-10-24T16:15:15.389Z,30.271
2022-10-24T16:20:15.481Z,30.256
2022-10-24T16:25:15.629Z,30.264
2022-10-24T16:30:15.490Z,30.262
2022-10-24T16:35:15.360Z,30.258
2022-10-24T16:40:15.503Z,30.257
2022-10-24T16:45:15.586Z,30.255
2022-10-24T16:50:15.581Z,30.255
2022-10-24T16:55:15.527Z,30.252
2022-10-24T17:00:15.510Z,30.248
2022-10-24T17:05:15.586Z,30.246
2022-10-24T17:10:18.397Z,30.241
2022-10-24T17:15:18.044Z,30.243
2022-10-24T17:20:15.562Z,30.246
2022-10-24T17:25:15.548Z,30.245
2022-10-24T17:30:15.625Z,30.242
2022-10-24T17:35:15.623Z,30.240
2022-10-24T17:40:15.635Z,30.237
2022-10-24T17:45:15.723Z,30.236
2022-10-24T17:50:15.636Z,30.234
2022-10-24T17:55:22.556Z,30.234
2022-10-24T18:00:15.781Z,30.240
2022-10-24T18:05:15.616Z,30.245
2022-10-24T18:10:15.818Z,30.245
2022-10-24T18:15:15.712Z,30.249
2022-10-24T18:20:15.871Z,30.244
2022-10-24T18:25:20.186Z,30.244
2022-10-24T18:30:15.813Z,30.238
2022-10-24T18:35:15.726Z,30.237
2022-10-24T18:40:15.749Z,30.235
2022-10-24T18:45:15.692Z,30.233
2022-10-24T18:50:15.900Z,30.226
2022-10-24T18:55:15.847Z,30.230
2022-10-24T19:00:15.737Z,30.235
2022-10-24T19:05:15.750Z,30.241
2022-10-24T19:10:15.757Z,30.243
2022-10-24T19:15:15.972Z,30.245
2022-10-24T19:20:15.862Z,30.249
2022-10-24T19:25:15.840Z,30.248
2022-10-24T19:30:15.932Z,30.248
2022-10-24T19:35:15.937Z,30.243
2022-10-24T19:40:15.941Z,30.241
2022-10-24T19:45:15.898Z,30.246
2022-10-24T19:50:15.847Z,30.240
2022-10-24T19:55:15.892Z,30.245
2022-10-24T20:00:16.029Z,30.242
2022-10-24T20:05:16.030Z,30.246
2022-10-24T20:10:16.115Z,30.251
2022-10-24T20:15:16.082Z,30.254
2022-10-24T20:20:15.935Z,30.257
2022-10-24T20:25:15.940Z,30.258
2022-10-24T20:30:15.925Z,30.251
2022-10-24T20:35:16.203Z,30.247
2022-10-24T20:40:15.938Z,30.237
2022-10-24T20:45:20.414Z,30.234
2022-10-24T20:50:15.983Z,30.232
2022-10-24T20:55:25.376Z,30.234
2022-10-24T21:00:16.127Z,30.229
2022-10-24T21:05:16.013Z,30.220
2022-10-24T21:10:16.044Z,30.218
2022-10-24T21:15:16.033Z,30.219
2022-10-24T21:20:16.036Z,30.210
2022-10-24T21:25:16.054Z,30.213
2022-10-24T21:30:16.074Z,30.214
2022-10-24T21:35:16.237Z,30.213
2022-10-24T21:40:16.218Z,30.215
2022-10-24T21:45:16.244Z,30.215
2022-10-24T21:50:16.254Z,30.220
2022-10-24T21:55:15.997Z,30.218
2022-10-24T22:00:16.070Z,30.215
2022-10-24T22:05:16.143Z,30.214
2022-10-24T22:10:16.115Z,30.219
2022-10-24T22:15:16.099Z,30.219
2022-10-24T22:20:16.298Z,30.218
2022-10-24T22:25:16.225Z,30.222
2022-10-24T22:30:16.215Z,30.222
2022-10-24T22:35:16.233Z,30.225
2022-10-24T22:40:16.321Z,30.223
2022-10-24T22:45:16.194Z,30.224
2022-10-24T22:50:16.216Z,30.229
2022-10-24T22:55:16.274Z,30.229
2022-10-24T23:00:16.409Z,30.229
2022-10-24T23:05:16.277Z,30.225
2022-10-24T23:10:16.239Z,30.227
2022-10-24T23:15:16.302Z,30.228
2022-10-24T23:20:16.296Z,30.229
2022-10-24T23:25:16.274Z,30.226
2022-10-24T23:30:16.379Z,30.229
2022-10-24T23:35:16.439Z,30.232
2022-10-24T23:40:16.566Z,30.237
2022-10-24T23:45:16.352Z,30.235
2022-10-24T23:50:16.327Z,30.232
2022-10-24T23:55:16.650Z,30.234
